sensor_id;sensor_type;location;lat;lon;timestamp;P1;durP1;ratioP1;P2;durP2;ratioP2
82159;SDS011;71734;50.876;7.372;2023-07-30T00:12:19;6.30;;;2.28;;
82159;SDS011;71734;50.876;7.372;2023-07-30T00:14:46;6.78;;;2.17;;
82159;SDS011;71734;50.876;7.372;2023-07-30T00:17:12;5.50;;;2.17;;
82159;SDS011;71734;50.876;7.372;2023-07-30T00:19:39;5.03;;;2.20;;
82159;SDS011;71734;50.876;7.372;2023-07-30T00:22:05;5.30;;;2.10;;
82159;SDS011;71734;50.876;7.372;2023-07-30T00:24:32;5.28;;;2.00;;
82159;SDS011;71734;50.876;7.372;2023-07-30T00:26:58;7.13;;;2.10;;
82159;SDS011;71734;50.876;7.372;2023-07-30T00:29:26;5.10;;;2.00;;
82159;SDS011;71734;50.876;7.372;2023-07-30T00:31:53;5.00;;;2.08;;
82159;SDS011;71734;50.876;7.372;2023-07-30T00:34:19;5.00;;;1.92;;
82159;SDS011;71734;50.876;7.372;2023-07-30T00:36:46;5.93;;;2.40;;
82159;SDS011;71734;50.876;7.372;2023-07-30T00:39:13;5.93;;;2.30;;
82159;SDS011;71734;50.876;7.372;2023-07-30T00:41:39;5.28;;;2.20;;
82159;SDS011;71734;50.876;7.372;2023-07-30T00:44:06;5.30;;;2.15;;
82159;SDS011;71734;50.876;7.372;2023-07-30T00:46:33;6.22;;;2.45;;
82159;SDS011;71734;50.876;7.372;2023-07-30T00:49:00;6.88;;;2.67;;
82159;SDS011;71734;50.876;7.372;2023-07-30T00:51:27;8.10;;;2.30;;
82159;SDS011;71734;50.876;7.372;2023-07-30T00:53:57;5.32;;;2.20;;
82159;SDS011;71734;50.876;7.372;2023-07-30T00:56:24;5.55;;;2.55;;
82159;SDS011;71734;50.876;7.372;2023-07-30T00:58:51;4.95;;;2.00;;
82159;SDS011;71734;50.876;7.372;2023-07-30T01:01:19;8.02;;;2.70;;
82159;SDS011;71734;50.876;7.372;2023-07-30T01:03:47;6.00;;;2.42;;
82159;SDS011;71734;50.876;7.372;2023-07-30T01:06:15;5.95;;;2.50;;
82159;SDS011;71734;50.876;7.372;2023-07-30T01:08:41;8.20;;;2.70;;
82159;SDS011;71734;50.876;7.372;2023-07-30T01:11:08;6.30;;;2.22;;
82159;SDS011;71734;50.876;7.372;2023-07-30T01:13:36;6.05;;;2.67;;
82159;SDS011;71734;50.876;7.372;2023-07-30T01:16:02;6.22;;;2.72;;
82159;SDS011;71734;50.876;7.372;2023-07-30T01:18:31;5.50;;;2.22;;
82159;SDS011;71734;50.876;7.372;2023-07-30T01:20:59;6.32;;;2.63;;
82159;SDS011;71734;50.876;7.372;2023-07-30T01:23:26;6.47;;;2.30;;
82159;SDS011;71734;50.876;7.372;2023-07-30T01:25:59;5.00;;;2.10;;
82159;SDS011;71734;50.876;7.372;2023-07-30T01:28:29;7.80;;;2.60;;
82159;SDS011;71734;50.876;7.372;2023-07-30T01:31:03;5.32;;;2.33;;
82159;SDS011;71734;50.876;7.372;2023-07-30T01:33:31;4.90;;;2.00;;
82159;SDS011;71734;50.876;7.372;2023-07-30T01:35:59;5.38;;;2.05;;
82159;SDS011;71734;50.876;7.372;2023-07-30T01:38:28;7.63;;;2.15;;
82159;SDS011;71734;50.876;7.372;2023-07-30T01:40:56;5.65;;;2.22;;
82159;SDS011;71734;50.876;7.372;2023-07-30T01:43:22;6.30;;;1.95;;
82159;SDS011;71734;50.876;7.372;2023-07-30T01:45:49;6.55;;;2.72;;
82159;SDS011;71734;50.876;7.372;2023-07-30T01:48:15;9.00;;;2.97;;
82159;SDS011;71734;50.876;7.372;2023-07-30T01:50:42;6.00;;;2.30;;
82159;SDS011;71734;50.876;7.372;2023-07-30T01:53:13;5.35;;;2.28;;
82159;SDS011;71734;50.876;7.372;2023-07-30T01:55:39;6.53;;;2.00;;
82159;SDS011;71734;50.876;7.372;2023-07-30T01:58:08;5.95;;;2.60;;
82159;SDS011;71734;50.876;7.372;2023-07-30T02:00:35;9.38;;;2.60;;
82159;SDS011;71734;50.876;7.372;2023-07-30T02:03:01;6.30;;;2.40;;
82159;SDS011;71734;50.876;7.372;2023-07-30T02:05:28;5.57;;;1.98;;
82159;SDS011;71734;50.876;7.372;2023-07-30T02:07:54;5.65;;;2.25;;
82159;SDS011;71734;50.876;7.372;2023-07-30T02:10:22;5.90;;;2.08;;
82159;SDS011;71734;50.876;7.372;2023-07-30T02:12:50;5.30;;;2.13;;
82159;SDS011;71734;50.876;7.372;2023-07-30T02:15:16;6.53;;;2.30;;
82159;SDS011;71734;50.876;7.372;2023-07-30T02:17:43;5.38;;;2.10;;
82159;SDS011;71734;50.876;7.372;2023-07-30T02:20:09;5.22;;;1.80;;
82159;SDS011;71734;50.876;7.372;2023-07-30T02:22:36;6.55;;;2.13;;
82159;SDS011;71734;50.876;7.372;2023-07-30T02:25:03;5.18;;;2.08;;
82159;SDS011;71734;50.876;7.372;2023-07-30T02:27:35;5.28;;;2.00;;
82159;SDS011;71734;50.876;7.372;2023-07-30T02:30:19;7.88;;;2.60;;
82159;SDS011;71734;50.876;7.372;2023-07-30T02:32:45;8.90;;;2.33;;
82159;SDS011;71734;50.876;7.372;2023-07-30T02:35:11;5.93;;;1.90;;
82159;SDS011;71734;50.876;7.372;2023-07-30T02:37:39;5.03;;;2.10;;
82159;SDS011;71734;50.876;7.372;2023-07-30T02:40:05;6.65;;;2.30;;
82159;SDS011;71734;50.876;7.372;2023-07-30T02:42:34;5.78;;;2.13;;
82159;SDS011;71734;50.876;7.372;2023-07-30T02:45:00;7.13;;;2.28;;
82159;SDS011;71734;50.876;7.372;2023-07-30T02:47:27;6.07;;;2.13;;
82159;SDS011;71734;50.876;7.372;2023-07-30T02:49:54;6.20;;;2.38;;
82159;SDS011;71734;50.876;7.372;2023-07-30T02:52:20;6.00;;;2.22;;
82159;SDS011;71734;50.876;7.372;2023-07-30T02:54:47;5.97;;;2.30;;
82159;SDS011;71734;50.876;7.372;2023-07-30T02:57:13;6.82;;;3.08;;
82159;SDS011;71734;50.876;7.372;2023-07-30T02:59:41;6.45;;;2.50;;
82159;SDS011;71734;50.876;7.372;2023-07-30T03:02:08;6.80;;;2.60;;
82159;SDS011;71734;50.876;7.372;2023-07-30T03:04:34;8.07;;;2.78;;
82159;SDS011;71734;50.876;7.372;2023-07-30T03:07:01;6.03;;;2.10;;
82159;SDS011;71734;50.876;7.372;2023-07-30T03:09:27;6.82;;;2.53;;
82159;SDS011;71734;50.876;7.372;2023-07-30T03:11:54;5.93;;;2.33;;
82159;SDS011;71734;50.876;7.372;2023-07-30T03:14:20;9.10;;;2.60;;
82159;SDS011;71734;50.876;7.372;2023-07-30T03:16:48;5.65;;;2.30;;
82159;SDS011;71734;50.876;7.372;2023-07-30T03:19:15;6.20;;;2.50;;
82159;SDS011;71734;50.876;7.372;2023-07-30T03:21:42;6.40;;;2.47;;
82159;SDS011;71734;50.876;7.372;2023-07-30T03:24:08;5.75;;;2.60;;
82159;SDS011;71734;50.876;7.372;2023-07-30T03:26:34;5.47;;;2.10;;
82159;SDS011;71734;50.876;7.372;2023-07-30T03:29:01;5.90;;;1.95;;
82159;SDS011;71734;50.876;7.372;2023-07-30T03:31:27;5.40;;;1.73;;
82159;SDS011;71734;50.876;7.372;2023-07-30T03:33:55;5.85;;;2.05;;
82159;SDS011;71734;50.876;7.372;2023-07-30T03:36:24;6.13;;;2.15;;
82159;SDS011;71734;50.876;7.372;2023-07-30T03:38:50;6.05;;;1.75;;
82159;SDS011;71734;50.876;7.372;2023-07-30T03:41:17;5.88;;;2.00;;
82159;SDS011;71734;50.876;7.372;2023-07-30T03:43:43;5.53;;;1.88;;
82159;SDS011;71734;50.876;7.372;2023-07-30T03:46:10;6.68;;;1.90;;
82159;SDS011;71734;50.876;7.372;2023-07-30T03:48:36;4.10;;;1.67;;
82159;SDS011;71734;50.876;7.372;2023-07-30T03:51:04;5.57;;;1.95;;
82159;SDS011;71734;50.876;7.372;2023-07-30T03:53:32;6.13;;;1.98;;
82159;SDS011;71734;50.876;7.372;2023-07-30T03:55:58;8.25;;;2.00;;
82159;SDS011;71734;50.876;7.372;2023-07-30T03:58:25;5.30;;;1.90;;
82159;SDS011;71734;50.876;7.372;2023-07-30T04:00:52;5.28;;;1.80;;
82159;SDS011;71734;50.876;7.372;2023-07-30T04:03:18;6.10;;;2.00;;
82159;SDS011;71734;50.876;7.372;2023-07-30T04:05:45;6.30;;;1.50;;
82159;SDS011;71734;50.876;7.372;2023-07-30T04:08:12;5.25;;;1.60;;
82159;SDS011;71734;50.876;7.372;2023-07-30T04:10:39;4.90;;;1.70;;
82159;SDS011;71734;50.876;7.372;2023-07-30T04:13:05;6.07;;;1.90;;
82159;SDS011;71734;50.876;7.372;2023-07-30T04:15:32;6.18;;;1.90;;
82159;SDS011;71734;50.876;7.372;2023-07-30T04:17:59;5.25;;;1.80;;
82159;SDS011;71734;50.876;7.372;2023-07-30T04:20:26;6.00;;;1.85;;
82159;SDS011;71734;50.876;7.372;2023-07-30T04:22:52;5.40;;;1.70;;
82159;SDS011;71734;50.876;7.372;2023-07-30T04:25:20;8.10;;;1.73;;
82159;SDS011;71734;50.876;7.372;2023-07-30T04:27:46;5.55;;;1.63;;
82159;SDS011;71734;50.876;7.372;2023-07-30T04:30:16;5.68;;;1.80;;
82159;SDS011;71734;50.876;7.372;2023-07-30T04:32:43;5.95;;;1.55;;
82159;SDS011;71734;50.876;7.372;2023-07-30T04:35:09;6.00;;;1.80;;
82159;SDS011;71734;50.876;7.372;2023-07-30T04:37:36;5.95;;;1.70;;
82159;SDS011;71734;50.876;7.372;2023-07-30T04:40:04;5.00;;;1.80;;
82159;SDS011;71734;50.876;7.372;2023-07-30T04:42:33;5.32;;;1.55;;
82159;SDS011;71734;50.876;7.372;2023-07-30T04:45:00;6.28;;;2.00;;
82159;SDS011;71734;50.876;7.372;2023-07-30T04:47:26;5.82;;;1.75;;
82159;SDS011;71734;50.876;7.372;2023-07-30T04:49:53;5.40;;;1.70;;
82159;SDS011;71734;50.876;7.372;2023-07-30T04:52:19;6.70;;;1.80;;
82159;SDS011;71734;50.876;7.372;2023-07-30T04:54:46;6.28;;;1.45;;
82159;SDS011;71734;50.876;7.372;2023-07-30T04:57:12;7.85;;;2.05;;
82159;SDS011;71734;50.876;7.372;2023-07-30T04:59:40;6.40;;;1.75;;
82159;SDS011;71734;50.876;7.372;2023-07-30T05:02:06;7.05;;;1.63;;
82159;SDS011;71734;50.876;7.372;2023-07-30T05:04:33;4.72;;;1.60;;
82159;SDS011;71734;50.876;7.372;2023-07-30T05:06:59;5.97;;;1.90;;
82159;SDS011;71734;50.876;7.372;2023-07-30T05:09:26;7.53;;;1.95;;
82159;SDS011;71734;50.876;7.372;2023-07-30T05:11:52;4.63;;;1.70;;
82159;SDS011;71734;50.876;7.372;2023-07-30T05:14:19;6.57;;;1.60;;
82159;SDS011;71734;50.876;7.372;2023-07-30T05:16:47;5.78;;;1.90;;
82159;SDS011;71734;50.876;7.372;2023-07-30T05:19:13;5.68;;;1.85;;
82159;SDS011;71734;50.876;7.372;2023-07-30T05:21:39;6.18;;;1.67;;
82159;SDS011;71734;50.876;7.372;2023-07-30T05:24:07;8.07;;;2.88;;
82159;SDS011;71734;50.876;7.372;2023-07-30T05:26:33;6.30;;;1.95;;
82159;SDS011;71734;50.876;7.372;2023-07-30T05:29:00;5.68;;;1.85;;
82159;SDS011;71734;50.876;7.372;2023-07-30T05:31:28;6.78;;;1.80;;
82159;SDS011;71734;50.876;7.372;2023-07-30T05:33:56;6.47;;;1.92;;
82159;SDS011;71734;50.876;7.372;2023-07-30T05:36:22;6.03;;;1.60;;
82159;SDS011;71734;50.876;7.372;2023-07-30T05:38:49;6.10;;;1.85;;
82159;SDS011;71734;50.876;7.372;2023-07-30T05:41:16;8.07;;;1.98;;
82159;SDS011;71734;50.876;7.372;2023-07-30T05:43:43;4.95;;;1.80;;
82159;SDS011;71734;50.876;7.372;2023-07-30T05:46:11;5.28;;;1.70;;
82159;SDS011;71734;50.876;7.372;2023-07-30T05:48:37;5.57;;;2.03;;
82159;SDS011;71734;50.876;7.372;2023-07-30T05:51:05;8.70;;;1.67;;
82159;SDS011;71734;50.876;7.372;2023-07-30T05:53:31;6.03;;;1.52;;
82159;SDS011;71734;50.876;7.372;2023-07-30T05:55:58;6.32;;;1.70;;
82159;SDS011;71734;50.876;7.372;2023-07-30T06:21:42;7.18;;;1.50;;
82159;SDS011;71734;50.876;7.372;2023-07-30T06:24:09;5.18;;;1.40;;
82159;SDS011;71734;50.876;7.372;2023-07-30T06:26:36;5.57;;;1.38;;
82159;SDS011;71734;50.876;7.372;2023-07-30T06:29:03;5.63;;;1.55;;
82159;SDS011;71734;50.876;7.372;2023-07-30T06:31:30;7.47;;;1.70;;
82159;SDS011;71734;50.876;7.372;2023-07-30T07:49:24;6.33;;;2.03;;
82159;SDS011;71734;50.876;7.372;2023-07-30T07:52:12;5.80;;;2.10;;
82159;SDS011;71734;50.876;7.372;2023-07-30T07:58:07;6.30;;;2.00;;
82159;SDS011;71734;50.876;7.372;2023-07-30T08:01:01;6.63;;;2.10;;
82159;SDS011;71734;50.876;7.372;2023-07-30T08:03:50;6.43;;;2.42;;
82159;SDS011;71734;50.876;7.372;2023-07-30T08:36:51;6.00;;;2.03;;
82159;SDS011;71734;50.876;7.372;2023-07-30T08:39:34;7.07;;;2.00;;
82159;SDS011;71734;50.876;7.372;2023-07-30T08:42:22;5.45;;;2.22;;
82159;SDS011;71734;50.876;7.372;2023-07-30T08:48:13;6.85;;;2.10;;
82159;SDS011;71734;50.876;7.372;2023-07-30T08:50:45;5.88;;;2.20;;
82159;SDS011;71734;50.876;7.372;2023-07-30T08:53:26;6.22;;;2.00;;
82159;SDS011;71734;50.876;7.372;2023-07-30T08:56:10;9.60;;;2.30;;
82159;SDS011;71734;50.876;7.372;2023-07-30T08:58:48;6.18;;;2.00;;
82159;SDS011;71734;50.876;7.372;2023-07-30T09:01:22;5.95;;;2.40;;
82159;SDS011;71734;50.876;7.372;2023-07-30T09:03:52;6.07;;;1.98;;
82159;SDS011;71734;50.876;7.372;2023-07-30T09:06:25;6.60;;;1.92;;
82159;SDS011;71734;50.876;7.372;2023-07-30T09:09:34;8.43;;;2.00;;
82159;SDS011;71734;50.876;7.372;2023-07-30T09:12:15;6.13;;;2.20;;
82159;SDS011;71734;50.876;7.372;2023-07-30T09:15:06;7.22;;;2.22;;
82159;SDS011;71734;50.876;7.372;2023-07-30T09:17:43;6.93;;;2.20;;
82159;SDS011;71734;50.876;7.372;2023-07-30T09:20:13;9.30;;;2.40;;
82159;SDS011;71734;50.876;7.372;2023-07-30T09:22:51;6.68;;;1.90;;
82159;SDS011;71734;50.876;7.372;2023-07-30T09:25:19;6.70;;;2.42;;
82159;SDS011;71734;50.876;7.372;2023-07-30T10:45:26;6.63;;;1.92;;
82159;SDS011;71734;50.876;7.372;2023-07-30T10:48:03;5.30;;;1.55;;
82159;SDS011;71734;50.876;7.372;2023-07-30T10:50:30;5.32;;;1.80;;
82159;SDS011;71734;50.876;7.372;2023-07-30T10:52:59;4.78;;;1.33;;
82159;SDS011;71734;50.876;7.372;2023-07-30T10:55:29;5.13;;;1.35;;
82159;SDS011;71734;50.876;7.372;2023-07-30T10:58:03;7.10;;;1.42;;
82159;SDS011;71734;50.876;7.372;2023-07-30T11:00:32;7.20;;;1.30;;
82159;SDS011;71734;50.876;7.372;2023-07-30T11:03:06;6.82;;;1.50;;
82159;SDS011;71734;50.876;7.372;2023-07-30T11:05:37;6.38;;;1.25;;
82159;SDS011;71734;50.876;7.372;2023-07-30T11:08:07;7.60;;;1.40;;
82159;SDS011;71734;50.876;7.372;2023-07-30T11:10:41;4.47;;;1.73;;
82159;SDS011;71734;50.876;7.372;2023-07-30T11:13:08;6.80;;;1.42;;
82159;SDS011;71734;50.876;7.372;2023-07-30T11:15:42;5.55;;;1.30;;
82159;SDS011;71734;50.876;7.372;2023-07-30T11:18:13;4.50;;;1.60;;
82159;SDS011;71734;50.876;7.372;2023-07-30T11:20:41;5.15;;;1.30;;
82159;SDS011;71734;50.876;7.372;2023-07-30T11:23:20;5.63;;;1.52;;
82159;SDS011;71734;50.876;7.372;2023-07-30T11:25:49;5.75;;;1.80;;
82159;SDS011;71734;50.876;7.372;2023-07-30T11:28:32;4.60;;;1.20;;
82159;SDS011;71734;50.876;7.372;2023-07-30T11:31:01;7.03;;;1.48;;
82159;SDS011;71734;50.876;7.372;2023-07-30T11:33:32;7.18;;;1.40;;
82159;SDS011;71734;50.876;7.372;2023-07-30T11:36:03;5.35;;;1.50;;
82159;SDS011;71734;50.876;7.372;2023-07-30T11:38:36;7.38;;;1.42;;
82159;SDS011;71734;50.876;7.372;2023-07-30T11:41:25;8.23;;;1.30;;
82159;SDS011;71734;50.876;7.372;2023-07-30T11:44:03;6.45;;;1.30;;
82159;SDS011;71734;50.876;7.372;2023-07-30T11:46:53;5.10;;;1.20;;
82159;SDS011;71734;50.876;7.372;2023-07-30T11:49:20;5.10;;;1.50;;
82159;SDS011;71734;50.876;7.372;2023-07-30T11:51:47;7.20;;;1.20;;
82159;SDS011;71734;50.876;7.372;2023-07-30T11:54:20;5.20;;;1.30;;
82159;SDS011;71734;50.876;7.372;2023-07-30T11:56:47;4.88;;;1.20;;
82159;SDS011;71734;50.876;7.372;2023-07-30T11:59:20;5.03;;;1.20;;
82159;SDS011;71734;50.876;7.372;2023-07-30T12:01:46;4.55;;;1.15;;
82159;SDS011;71734;50.876;7.372;2023-07-30T12:04:15;7.45;;;1.10;;
82159;SDS011;71734;50.876;7.372;2023-07-30T12:06:42;4.50;;;1.10;;
82159;SDS011;71734;50.876;7.372;2023-07-30T12:09:11;4.28;;;1.17;;
82159;SDS011;71734;50.876;7.372;2023-07-30T12:11:46;4.15;;;1.13;;
82159;SDS011;71734;50.876;7.372;2023-07-30T12:14:13;4.85;;;1.10;;
82159;SDS011;71734;50.876;7.372;2023-07-30T12:16:42;3.38;;;1.10;;
82159;SDS011;71734;50.876;7.372;2023-07-30T12:19:11;5.78;;;1.30;;
82159;SDS011;71734;50.876;7.372;2023-07-30T12:21:40;6.50;;;1.20;;
82159;SDS011;71734;50.876;7.372;2023-07-30T12:24:07;5.22;;;1.13;;
82159;SDS011;71734;50.876;7.372;2023-07-30T12:26:33;5.10;;;1.33;;
82159;SDS011;71734;50.876;7.372;2023-07-30T12:29:00;5.18;;;1.15;;
82159;SDS011;71734;50.876;7.372;2023-07-30T12:31:26;4.57;;;1.08;;
82159;SDS011;71734;50.876;7.372;2023-07-30T12:33:53;6.00;;;1.13;;
82159;SDS011;71734;50.876;7.372;2023-07-30T12:36:19;5.32;;;1.77;;
82159;SDS011;71734;50.876;7.372;2023-07-30T12:38:47;4.72;;;1.00;;
82159;SDS011;71734;50.876;7.372;2023-07-30T12:41:14;7.40;;;1.20;;
82159;SDS011;71734;50.876;7.372;2023-07-30T12:43:42;3.42;;;1.00;;
82159;SDS011;71734;50.876;7.372;2023-07-30T12:46:08;5.30;;;1.30;;
82159;SDS011;71734;50.876;7.372;2023-07-30T12:48:35;4.40;;;1.20;;
82159;SDS011;71734;50.876;7.372;2023-07-30T12:51:03;3.88;;;1.20;;
82159;SDS011;71734;50.876;7.372;2023-07-30T12:53:30;5.70;;;1.58;;
82159;SDS011;71734;50.876;7.372;2023-07-30T12:55:58;6.72;;;1.80;;
82159;SDS011;71734;50.876;7.372;2023-07-30T12:58:24;8.63;;;1.30;;
82159;SDS011;71734;50.876;7.372;2023-07-30T13:00:51;4.68;;;1.25;;
82159;SDS011;71734;50.876;7.372;2023-07-30T13:03:17;3.92;;;1.05;;
82159;SDS011;71734;50.876;7.372;2023-07-30T13:05:43;4.28;;;1.00;;
82159;SDS011;71734;50.876;7.372;2023-07-30T13:08:10;4.78;;;1.25;;
82159;SDS011;71734;50.876;7.372;2023-07-30T13:10:36;7.35;;;1.65;;
82159;SDS011;71734;50.876;7.372;2023-07-30T13:13:04;5.18;;;1.20;;
82159;SDS011;71734;50.876;7.372;2023-07-30T13:15:31;6.05;;;1.30;;
82159;SDS011;71734;50.876;7.372;2023-07-30T13:17:57;4.65;;;1.30;;
82159;SDS011;71734;50.876;7.372;2023-07-30T13:20:24;5.85;;;1.30;;
82159;SDS011;71734;50.876;7.372;2023-07-30T13:22:50;4.50;;;1.20;;
82159;SDS011;71734;50.876;7.372;2023-07-30T13:25:17;7.50;;;1.30;;
82159;SDS011;71734;50.876;7.372;2023-07-30T13:27:44;5.35;;;1.10;;
82159;SDS011;71734;50.876;7.372;2023-07-30T13:30:13;4.75;;;1.02;;
82159;SDS011;71734;50.876;7.372;2023-07-30T13:32:39;5.68;;;1.45;;
82159;SDS011;71734;50.876;7.372;2023-07-30T13:35:06;5.57;;;1.42;;
82159;SDS011;71734;50.876;7.372;2023-07-30T13:37:33;5.82;;;1.30;;
82159;SDS011;71734;50.876;7.372;2023-07-30T13:39:59;5.20;;;1.30;;
82159;SDS011;71734;50.876;7.372;2023-07-30T13:42:26;6.07;;;1.50;;
82159;SDS011;71734;50.876;7.372;2023-07-30T13:44:52;4.75;;;1.10;;
82159;SDS011;71734;50.876;7.372;2023-07-30T13:47:20;5.18;;;1.20;;
82159;SDS011;71734;50.876;7.372;2023-07-30T13:49:48;5.07;;;1.30;;
82159;SDS011;71734;50.876;7.372;2023-07-30T13:52:15;5.25;;;1.27;;
82159;SDS011;71734;50.876;7.372;2023-07-30T13:54:41;6.43;;;1.30;;
82159;SDS011;71734;50.876;7.372;2023-07-30T13:57:10;6.90;;;1.38;;
82159;SDS011;71734;50.876;7.372;2023-07-30T13:59:38;6.13;;;2.03;;
82159;SDS011;71734;50.876;7.372;2023-07-30T14:02:09;6.88;;;1.58;;
82159;SDS011;71734;50.876;7.372;2023-07-30T14:04:36;5.75;;;1.38;;
82159;SDS011;71734;50.876;7.372;2023-07-30T14:07:03;3.83;;;1.20;;
82159;SDS011;71734;50.876;7.372;2023-07-30T14:09:32;4.57;;;1.25;;
82159;SDS011;71734;50.876;7.372;2023-07-30T14:12:01;6.20;;;1.40;;
82159;SDS011;71734;50.876;7.372;2023-07-30T14:14:28;5.07;;;1.50;;
82159;SDS011;71734;50.876;7.372;2023-07-30T14:16:54;5.63;;;1.40;;
82159;SDS011;71734;50.876;7.372;2023-07-30T14:19:24;6.28;;;1.67;;
82159;SDS011;71734;50.876;7.372;2023-07-30T14:21:51;4.85;;;1.30;;
82159;SDS011;71734;50.876;7.372;2023-07-30T14:24:18;6.07;;;1.45;;
82159;SDS011;71734;50.876;7.372;2023-07-30T14:26:45;6.85;;;1.10;;
82159;SDS011;71734;50.876;7.372;2023-07-30T14:29:11;3.33;;;1.27;;
82159;SDS011;71734;50.876;7.372;2023-07-30T14:31:50;3.63;;;1.38;;
82159;SDS011;71734;50.876;7.372;2023-07-30T14:34:24;3.55;;;1.05;;
82159;SDS011;71734;50.876;7.372;2023-07-30T14:37:03;4.72;;;1.13;;
82159;SDS011;71734;50.876;7.372;2023-07-30T14:39:35;6.00;;;1.23;;
82159;SDS011;71734;50.876;7.372;2023-07-30T14:42:01;4.10;;;1.02;;
82159;SDS011;71734;50.876;7.372;2023-07-30T14:44:28;6.65;;;1.20;;
82159;SDS011;71734;50.876;7.372;2023-07-30T14:46:54;5.15;;;1.10;;
82159;SDS011;71734;50.876;7.372;2023-07-30T14:49:22;3.63;;;1.00;;
82159;SDS011;71734;50.876;7.372;2023-07-30T14:51:48;4.70;;;1.33;;
82159;SDS011;71734;50.876;7.372;2023-07-30T14:54:17;5.60;;;1.58;;
82159;SDS011;71734;50.876;7.372;2023-07-30T14:56:44;4.97;;;1.20;;
82159;SDS011;71734;50.876;7.372;2023-07-30T14:59:10;7.32;;;1.30;;
82159;SDS011;71734;50.876;7.372;2023-07-30T15:01:37;4.05;;;1.10;;
82159;SDS011;71734;50.876;7.372;2023-07-30T15:04:03;5.57;;;1.17;;
82159;SDS011;71734;50.876;7.372;2023-07-30T15:06:30;4.00;;;1.00;;
82159;SDS011;71734;50.876;7.372;2023-07-30T15:08:57;8.23;;;1.45;;
82159;SDS011;71734;50.876;7.372;2023-07-30T15:11:25;5.10;;;1.15;;
82159;SDS011;71734;50.876;7.372;2023-07-30T15:14:01;4.20;;;1.40;;
82159;SDS011;71734;50.876;7.372;2023-07-30T15:16:28;4.43;;;1.40;;
82159;SDS011;71734;50.876;7.372;2023-07-30T15:18:54;3.75;;;1.00;;
82159;SDS011;71734;50.876;7.372;2023-07-30T15:21:21;5.03;;;1.00;;
82159;SDS011;71734;50.876;7.372;2023-07-30T15:23:48;5.35;;;1.30;;
82159;SDS011;71734;50.876;7.372;2023-07-30T15:26:14;5.20;;;1.00;;
82159;SDS011;71734;50.876;7.372;2023-07-30T15:28:43;4.65;;;0.95;;
82159;SDS011;71734;50.876;7.372;2023-07-30T15:31:09;5.55;;;1.20;;
82159;SDS011;71734;50.876;7.372;2023-07-30T15:33:36;5.25;;;1.02;;
82159;SDS011;71734;50.876;7.372;2023-07-30T15:36:02;5.75;;;1.00;;
82159;SDS011;71734;50.876;7.372;2023-07-30T15:38:29;4.45;;;1.00;;
82159;SDS011;71734;50.876;7.372;2023-07-30T15:40:56;5.25;;;1.35;;
82159;SDS011;71734;50.876;7.372;2023-07-30T15:43:22;4.88;;;1.13;;
82159;SDS011;71734;50.876;7.372;2023-07-30T15:45:50;5.22;;;1.25;;
82159;SDS011;71734;50.876;7.372;2023-07-30T15:48:18;3.80;;;0.90;;
82159;SDS011;71734;50.876;7.372;2023-07-30T15:50:44;3.45;;;1.08;;
82159;SDS011;71734;50.876;7.372;2023-07-30T15:53:11;8.68;;;1.42;;
82159;SDS011;71734;50.876;7.372;2023-07-30T15:55:37;5.82;;;1.20;;
82159;SDS011;71734;50.876;7.372;2023-07-30T15:58:04;5.15;;;1.48;;
82159;SDS011;71734;50.876;7.372;2023-07-30T16:00:31;6.28;;;1.40;;
82159;SDS011;71734;50.876;7.372;2023-07-30T16:02:58;4.35;;;1.10;;
82159;SDS011;71734;50.876;7.372;2023-07-30T16:05:30;4.72;;;1.33;;
82159;SDS011;71734;50.876;7.372;2023-07-30T16:07:57;4.43;;;1.05;;
82159;SDS011;71734;50.876;7.372;2023-07-30T16:10:23;8.30;;;1.23;;
82159;SDS011;71734;50.876;7.372;2023-07-30T16:12:50;4.78;;;1.05;;
82159;SDS011;71734;50.876;7.372;2023-07-30T16:15:17;5.18;;;1.13;;
82159;SDS011;71734;50.876;7.372;2023-07-30T16:17:43;4.45;;;1.02;;
82159;SDS011;71734;50.876;7.372;2023-07-30T16:20:11;4.60;;;1.13;;
82159;SDS011;71734;50.876;7.372;2023-07-30T16:22:37;6.90;;;1.10;;
82159;SDS011;71734;50.876;7.372;2023-07-30T16:25:04;6.47;;;1.73;;
82159;SDS011;71734;50.876;7.372;2023-07-30T16:27:31;5.47;;;1.40;;
82159;SDS011;71734;50.876;7.372;2023-07-30T16:29:57;4.88;;;1.20;;
82159;SDS011;71734;50.876;7.372;2023-07-30T16:32:24;6.45;;;1.25;;
82159;SDS011;71734;50.876;7.372;2023-07-30T16:34:50;6.28;;;1.40;;
82159;SDS011;71734;50.876;7.372;2023-07-30T16:37:22;4.75;;;1.20;;
82159;SDS011;71734;50.876;7.372;2023-07-30T16:39:49;6.53;;;1.38;;
82159;SDS011;71734;50.876;7.372;2023-07-30T16:45:54;4.35;;;1.17;;
82159;SDS011;71734;50.876;7.372;2023-07-30T16:48:24;5.45;;;1.27;;
82159;SDS011;71734;50.876;7.372;2023-07-30T16:50:51;4.53;;;1.10;;
82159;SDS011;71734;50.876;7.372;2023-07-30T16:56:09;6.10;;;1.20;;
82159;SDS011;71734;50.876;7.372;2023-07-30T16:58:36;6.53;;;1.58;;
82159;SDS011;71734;50.876;7.372;2023-07-30T17:01:05;4.25;;;1.17;;
82159;SDS011;71734;50.876;7.372;2023-07-30T17:03:34;3.70;;;1.00;;
82159;SDS011;71734;50.876;7.372;2023-07-30T17:06:02;5.40;;;1.10;;
82159;SDS011;71734;50.876;7.372;2023-07-30T17:08:29;5.07;;;1.25;;
82159;SDS011;71734;50.876;7.372;2023-07-30T17:10:57;7.10;;;1.20;;
82159;SDS011;71734;50.876;7.372;2023-07-30T17:13:29;3.65;;;1.13;;
82159;SDS011;71734;50.876;7.372;2023-07-30T17:15:55;5.30;;;1.33;;
82159;SDS011;71734;50.876;7.372;2023-07-30T17:18:24;5.38;;;1.20;;
82159;SDS011;71734;50.876;7.372;2023-07-30T17:20:54;5.25;;;1.20;;
82159;SDS011;71734;50.876;7.372;2023-07-30T17:23:22;4.30;;;1.25;;
82159;SDS011;71734;50.876;7.372;2023-07-30T17:25:53;5.05;;;1.40;;
82159;SDS011;71734;50.876;7.372;2023-07-30T17:28:22;5.65;;;1.95;;
82159;SDS011;71734;50.876;7.372;2023-07-30T17:30:49;5.30;;;1.20;;
82159;SDS011;71734;50.876;7.372;2023-07-30T17:33:16;5.20;;;1.42;;
82159;SDS011;71734;50.876;7.372;2023-07-30T17:35:47;5.07;;;1.20;;
82159;SDS011;71734;50.876;7.372;2023-07-30T17:38:14;6.03;;;1.40;;
82159;SDS011;71734;50.876;7.372;2023-07-30T17:40:48;5.40;;;1.35;;
82159;SDS011;71734;50.876;7.372;2023-07-30T17:43:15;5.57;;;1.27;;
82159;SDS011;71734;50.876;7.372;2023-07-30T17:45:43;5.10;;;1.33;;
82159;SDS011;71734;50.876;7.372;2023-07-30T17:48:10;3.83;;;1.20;;
82159;SDS011;71734;50.876;7.372;2023-07-30T17:50:36;7.30;;;1.30;;
82159;SDS011;71734;50.876;7.372;2023-07-30T17:53:04;7.03;;;1.30;;
82159;SDS011;71734;50.876;7.372;2023-07-30T17:55:31;4.47;;;1.05;;
82159;SDS011;71734;50.876;7.372;2023-07-30T17:57:57;4.00;;;1.20;;
82159;SDS011;71734;50.876;7.372;2023-07-30T18:00:24;5.43;;;1.20;;
82159;SDS011;71734;50.876;7.372;2023-07-30T18:02:52;4.47;;;1.30;;
82159;SDS011;71734;50.876;7.372;2023-07-30T18:05:18;3.97;;;1.20;;
82159;SDS011;71734;50.876;7.372;2023-07-30T18:07:45;4.43;;;1.30;;
82159;SDS011;71734;50.876;7.372;2023-07-30T18:10:12;5.65;;;1.40;;
82159;SDS011;71734;50.876;7.372;2023-07-30T18:12:38;4.63;;;1.20;;
82159;SDS011;71734;50.876;7.372;2023-07-30T18:15:05;4.60;;;1.00;;
82159;SDS011;71734;50.876;7.372;2023-07-30T18:17:32;4.00;;;1.10;;
82159;SDS011;71734;50.876;7.372;2023-07-30T18:20:00;4.72;;;1.10;;
82159;SDS011;71734;50.876;7.372;2023-07-30T18:22:27;6.28;;;1.58;;
82159;SDS011;71734;50.876;7.372;2023-07-30T18:24:53;4.57;;;1.10;;
82159;SDS011;71734;50.876;7.372;2023-07-30T18:27:20;6.25;;;1.40;;
82159;SDS011;71734;50.876;7.372;2023-07-30T18:29:46;5.00;;;1.23;;
82159;SDS011;71734;50.876;7.372;2023-07-30T18:32:13;4.68;;;1.13;;
82159;SDS011;71734;50.876;7.372;2023-07-30T18:34:39;4.05;;;1.45;;
82159;SDS011;71734;50.876;7.372;2023-07-30T18:37:07;4.40;;;1.23;;
82159;SDS011;71734;50.876;7.372;2023-07-30T18:39:34;4.45;;;1.40;;
82159;SDS011;71734;50.876;7.372;2023-07-30T18:42:01;5.28;;;1.30;;
82159;SDS011;71734;50.876;7.372;2023-07-30T18:44:27;5.85;;;1.40;;
82159;SDS011;71734;50.876;7.372;2023-07-30T18:46:54;7.75;;;1.98;;